sensor_id;sensor_type;location;lat;lon;timestamp;temperature;humidity
19088;DHT22;9676;50.916;13.352;2023-03-12T00:01:17;1.30;99.50
19088;DHT22;9676;50.916;13.352;2023-03-12T00:04:08;1.30;99.40
19088;DHT22;9676;50.916;13.352;2023-03-12T00:06:57;1.30;99.40
19088;DHT22;9676;50.916;13.352;2023-03-12T00:09:46;1.20;99.40
19088;DHT22;9676;50.916;13.352;2023-03-12T00:12:36;1.30;99.50
19088;DHT22;9676;50.916;13.352;2023-03-12T00:15:25;1.20;99.50
19088;DHT22;9676;50.916;13.352;2023-03-12T00:18:17;1.20;99.50
19088;DHT22;9676;50.916;13.352;2023-03-12T00:21:07;1.20;99.40
19088;DHT22;9676;50.916;13.352;2023-03-12T00:23:56;1.20;99.50
19088;DHT22;9676;50.916;13.352;2023-03-12T00:26:46;1.10;99.50
19088;DHT22;9676;50.916;13.352;2023-03-12T00:29:35;1.10;99.50
19088;DHT22;9676;50.916;13.352;2023-03-12T00:32:25;1.10;99.60
19088;DHT22;9676;50.916;13.352;2023-03-12T00:35:15;1.10;99.70
19088;DHT22;9676;50.916;13.352;2023-03-12T00:38:05;1.10;99.80
19088;DHT22;9676;50.916;13.352;2023-03-12T00:40:54;1.10;99.90
19088;DHT22;9676;50.916;13.352;2023-03-12T00:43:44;1.10;99.90
19088;DHT22;9676;50.916;13.352;2023-03-12T00:46:33;1.10;99.90
19088;DHT22;9676;50.916;13.352;2023-03-12T00:49:22;1.10;99.80
19088;DHT22;9676;50.916;13.352;2023-03-12T00:52:13;1.00;99.60
19088;DHT22;9676;50.916;13.352;2023-03-12T00:55:03;1.00;99.60
19088;DHT22;9676;50.916;13.352;2023-03-12T00:57:52;1.00;99.60
19088;DHT22;9676;50.916;13.352;2023-03-12T01:00:42;1.10;99.70
19088;DHT22;9676;50.916;13.352;2023-03-12T01:03:31;1.00;99.60
19088;DHT22;9676;50.916;13.352;2023-03-12T01:06:21;1.00;99.50
19088;DHT22;9676;50.916;13.352;2023-03-12T01:09:12;1.00;99.40
19088;DHT22;9676;50.916;13.352;2023-03-12T01:12:01;1.00;99.40
19088;DHT22;9676;50.916;13.352;2023-03-12T01:14:51;1.00;99.40
19088;DHT22;9676;50.916;13.352;2023-03-12T01:17:40;0.90;99.50
19088;DHT22;9676;50.916;13.352;2023-03-12T01:20:30;0.90;99.60
19088;DHT22;9676;50.916;13.352;2023-03-12T01:23:17;0.90;99.60
19088;DHT22;9676;50.916;13.352;2023-03-12T01:26:06;0.90;99.70
19088;DHT22;9676;50.916;13.352;2023-03-12T01:28:56;0.90;99.70
19088;DHT22;9676;50.916;13.352;2023-03-12T01:31:44;0.90;99.80
19088;DHT22;9676;50.916;13.352;2023-03-12T01:34:31;0.90;99.80
19088;DHT22;9676;50.916;13.352;2023-03-12T01:37:22;0.90;99.80
19088;DHT22;9676;50.916;13.352;2023-03-12T01:40:14;0.90;99.80
19088;DHT22;9676;50.916;13.352;2023-03-12T01:43:26;0.90;99.70
19088;DHT22;9676;50.916;13.352;2023-03-12T01:46:23;0.90;99.20
19088;DHT22;9676;50.916;13.352;2023-03-12T01:49:17;0.90;99.20
19088;DHT22;9676;50.916;13.352;2023-03-12T01:52:11;0.90;99.30
19088;DHT22;9676;50.916;13.352;2023-03-12T01:55:11;0.90;99.30
19088;DHT22;9676;50.916;13.352;2023-03-12T01:58:03;0.90;99.30
19088;DHT22;9676;50.916;13.352;2023-03-12T02:00:56;0.80;99.40
19088;DHT22;9676;50.916;13.352;2023-03-12T02:03:46;0.80;99.40
19088;DHT22;9676;50.916;13.352;2023-03-12T02:06:44;0.80;99.40
19088;DHT22;9676;50.916;13.352;2023-03-12T02:09:40;0.80;99.40
19088;DHT22;9676;50.916;13.352;2023-03-12T02:12:30;0.80;99.40
19088;DHT22;9676;50.916;13.352;2023-03-12T02:15:20;0.80;99.50
19088;DHT22;9676;50.916;13.352;2023-03-12T02:18:14;0.80;99.50
19088;DHT22;9676;50.916;13.352;2023-03-12T02:21:12;0.80;99.40
19088;DHT22;9676;50.916;13.352;2023-03-12T02:24:10;0.80;99.30
19088;DHT22;9676;50.916;13.352;2023-03-12T02:27:05;0.80;99.50
19088;DHT22;9676;50.916;13.352;2023-03-12T02:29:56;0.80;99.50
19088;DHT22;9676;50.916;13.352;2023-03-12T02:32:45;0.80;99.70
19088;DHT22;9676;50.916;13.352;2023-03-12T02:35:37;0.80;99.60
19088;DHT22;9676;50.916;13.352;2023-03-12T02:38:38;0.70;99.50
19088;DHT22;9676;50.916;13.352;2023-03-12T02:41:32;0.80;99.20
19088;DHT22;9676;50.916;13.352;2023-03-12T02:44:25;0.70;99.50
19088;DHT22;9676;50.916;13.352;2023-03-12T02:47:16;0.70;99.50
19088;DHT22;9676;50.916;13.352;2023-03-12T02:50:06;0.70;99.60
19088;DHT22;9676;50.916;13.352;2023-03-12T02:52:56;0.70;99.60
19088;DHT22;9676;50.916;13.352;2023-03-12T02:55:45;0.70;99.60
19088;DHT22;9676;50.916;13.352;2023-03-12T02:58:35;0.70;99.60
19088;DHT22;9676;50.916;13.352;2023-03-12T03:01:26;0.70;99.50
19088;DHT22;9676;50.916;13.352;2023-03-12T03:04:16;0.70;99.40
19088;DHT22;9676;50.916;13.352;2023-03-12T03:07:05;0.70;99.50
19088;DHT22;9676;50.916;13.352;2023-03-12T03:09:55;0.70;99.50
19088;DHT22;9676;50.916;13.352;2023-03-12T03:12:49;0.70;99.60
19088;DHT22;9676;50.916;13.352;2023-03-12T03:15:36;0.60;99.50
19088;DHT22;9676;50.916;13.352;2023-03-12T03:18:27;0.60;99.50
19088;DHT22;9676;50.916;13.352;2023-03-12T03:21:16;0.60;99.30
19088;DHT22;9676;50.916;13.352;2023-03-12T03:24:06;0.60;99.40
19088;DHT22;9676;50.916;13.352;2023-03-12T03:26:54;0.60;99.40
19088;DHT22;9676;50.916;13.352;2023-03-12T03:29:41;0.60;99.40
19088;DHT22;9676;50.916;13.352;2023-03-12T03:32:32;0.60;99.30
19088;DHT22;9676;50.916;13.352;2023-03-12T03:35:23;0.60;99.10
19088;DHT22;9676;50.916;13.352;2023-03-12T03:38:13;0.60;99.00
19088;DHT22;9676;50.916;13.352;2023-03-12T03:41:02;0.60;99.10
19088;DHT22;9676;50.916;13.352;2023-03-12T03:43:56;0.60;99.30
19088;DHT22;9676;50.916;13.352;2023-03-12T03:46:47;0.50;99.60
19088;DHT22;9676;50.916;13.352;2023-03-12T03:49:36;0.60;99.40
19088;DHT22;9676;50.916;13.352;2023-03-12T03:52:27;0.60;99.50
19088;DHT22;9676;50.916;13.352;2023-03-12T03:55:17;0.50;99.30
19088;DHT22;9676;50.916;13.352;2023-03-12T03:58:06;0.60;99.50
19088;DHT22;9676;50.916;13.352;2023-03-12T04:00:56;0.50;99.40
19088;DHT22;9676;50.916;13.352;2023-03-12T04:03:45;0.60;99.40
19088;DHT22;9676;50.916;13.352;2023-03-12T04:06:35;0.50;99.20
19088;DHT22;9676;50.916;13.352;2023-03-12T04:09:26;0.50;99.10
19088;DHT22;9676;50.916;13.352;2023-03-12T04:12:16;0.60;98.80
19088;DHT22;9676;50.916;13.352;2023-03-12T04:15:05;0.50;98.60
19088;DHT22;9676;50.916;13.352;2023-03-12T04:17:54;0.50;98.50
19088;DHT22;9676;50.916;13.352;2023-03-12T04:20:44;0.50;98.40
19088;DHT22;9676;50.916;13.352;2023-03-12T04:23:32;0.50;98.40
19088;DHT22;9676;50.916;13.352;2023-03-12T04:26:24;0.50;98.40
19088;DHT22;9676;50.916;13.352;2023-03-12T04:29:14;0.40;98.20
19088;DHT22;9676;50.916;13.352;2023-03-12T04:32:02;0.50;98.40
19088;DHT22;9676;50.916;13.352;2023-03-12T04:34:52;0.40;98.50
19088;DHT22;9676;50.916;13.352;2023-03-12T04:37:40;0.40;98.60
19088;DHT22;9676;50.916;13.352;2023-03-12T04:40:29;0.40;98.50
19088;DHT22;9676;50.916;13.352;2023-03-12T04:43:18;0.40;98.30
19088;DHT22;9676;50.916;13.352;2023-03-12T04:46:09;0.40;98.10
19088;DHT22;9676;50.916;13.352;2023-03-12T04:48:58;0.30;98.00
19088;DHT22;9676;50.916;13.352;2023-03-12T04:51:49;0.30;98.00
19088;DHT22;9676;50.916;13.352;2023-03-12T04:54:40;0.30;97.90
19088;DHT22;9676;50.916;13.352;2023-03-12T04:57:28;0.30;97.80
19088;DHT22;9676;50.916;13.352;2023-03-12T05:00:18;0.30;97.70
19088;DHT22;9676;50.916;13.352;2023-03-12T05:03:08;0.30;97.60
19088;DHT22;9676;50.916;13.352;2023-03-12T05:05:56;0.20;97.60
19088;DHT22;9676;50.916;13.352;2023-03-12T05:08:44;0.20;97.70
19088;DHT22;9676;50.916;13.352;2023-03-12T05:11:34;0.20;97.80
19088;DHT22;9676;50.916;13.352;2023-03-12T05:14:25;0.20;97.80
19088;DHT22;9676;50.916;13.352;2023-03-12T05:17:14;0.20;97.80
19088;DHT22;9676;50.916;13.352;2023-03-12T05:20:04;0.20;97.90
19088;DHT22;9676;50.916;13.352;2023-03-12T05:22:54;0.20;98.10
19088;DHT22;9676;50.916;13.352;2023-03-12T05:25:43;0.20;98.40
19088;DHT22;9676;50.916;13.352;2023-03-12T05:28:33;0.20;98.60
19088;DHT22;9676;50.916;13.352;2023-03-12T05:31:24;0.20;98.70
19088;DHT22;9676;50.916;13.352;2023-03-12T05:34:16;0.20;98.90
19088;DHT22;9676;50.916;13.352;2023-03-12T05:37:06;0.20;98.90
19088;DHT22;9676;50.916;13.352;2023-03-12T05:39:55;0.20;99.10
19088;DHT22;9676;50.916;13.352;2023-03-12T05:42:45;0.30;99.30
19088;DHT22;9676;50.916;13.352;2023-03-12T05:45:34;0.30;99.60
19088;DHT22;9676;50.916;13.352;2023-03-12T05:48:24;0.30;99.90
19088;DHT22;9676;50.916;13.352;2023-03-12T05:51:14;0.40;99.90
19088;DHT22;9676;50.916;13.352;2023-03-12T05:54:02;0.40;99.90
19088;DHT22;9676;50.916;13.352;2023-03-12T05:56:50;0.40;99.90
19088;DHT22;9676;50.916;13.352;2023-03-12T05:59:42;0.50;99.90
19088;DHT22;9676;50.916;13.352;2023-03-12T06:02:31;0.60;99.90
19088;DHT22;9676;50.916;13.352;2023-03-12T06:05:21;0.70;99.90
19088;DHT22;9676;50.916;13.352;2023-03-12T06:08:12;0.80;99.90
19088;DHT22;9676;50.916;13.352;2023-03-12T06:11:02;0.90;99.90
19088;DHT22;9676;50.916;13.352;2023-03-12T06:13:52;1.00;99.90
19088;DHT22;9676;50.916;13.352;2023-03-12T06:16:41;1.20;99.90
19088;DHT22;9676;50.916;13.352;2023-03-12T06:19:30;1.30;99.90
19088;DHT22;9676;50.916;13.352;2023-03-12T06:22:20;1.40;99.90
19088;DHT22;9676;50.916;13.352;2023-03-12T06:25:11;1.60;99.90
19088;DHT22;9676;50.916;13.352;2023-03-12T06:28:01;1.80;99.90
19088;DHT22;9676;50.916;13.352;2023-03-12T06:30:52;2.00;99.90
19088;DHT22;9676;50.916;13.352;2023-03-12T06:33:40;2.20;99.90
19088;DHT22;9676;50.916;13.352;2023-03-12T06:36:28;2.40;99.90
19088;DHT22;9676;50.916;13.352;2023-03-12T06:39:17;2.60;99.90
19088;DHT22;9676;50.916;13.352;2023-03-12T06:42:08;2.90;99.90
19088;DHT22;9676;50.916;13.352;2023-03-12T06:44:59;3.20;99.90
19088;DHT22;9676;50.916;13.352;2023-03-12T06:47:48;3.70;99.90
19088;DHT22;9676;50.916;13.352;2023-03-12T06:50:38;4.30;99.90
19088;DHT22;9676;50.916;13.352;2023-03-12T06:53:27;5.10;99.90
19088;DHT22;9676;50.916;13.352;2023-03-12T06:56:16;5.90;99.90
19088;DHT22;9676;50.916;13.352;2023-03-12T06:59:07;6.70;99.90
19088;DHT22;9676;50.916;13.352;2023-03-12T07:01:57;7.50;99.90
19088;DHT22;9676;50.916;13.352;2023-03-12T07:04:45;8.30;99.90
19088;DHT22;9676;50.916;13.352;2023-03-12T07:07:32;9.20;99.90
19088;DHT22;9676;50.916;13.352;2023-03-12T07:10:20;9.90;99.90
19088;DHT22;9676;50.916;13.352;2023-03-12T07:13:10;10.60;99.90
19088;DHT22;9676;50.916;13.352;2023-03-12T07:16:01;11.30;99.90
19088;DHT22;9676;50.916;13.352;2023-03-12T07:18:51;12.00;99.90
19088;DHT22;9676;50.916;13.352;2023-03-12T07:21:40;12.60;99.90
19088;DHT22;9676;50.916;13.352;2023-03-12T07:24:29;13.30;99.90
19088;DHT22;9676;50.916;13.352;2023-03-12T07:27:19;14.00;99.90
19088;DHT22;9676;50.916;13.352;2023-03-12T07:30:09;14.60;99.90
19088;DHT22;9676;50.916;13.352;2023-03-12T07:33:02;15.10;99.90
19088;DHT22;9676;50.916;13.352;2023-03-12T07:35:52;15.50;99.90
19088;DHT22;9676;50.916;13.352;2023-03-12T07:38:42;15.90;99.90
19088;DHT22;9676;50.916;13.352;2023-03-12T07:41:31;16.40;99.90
19088;DHT22;9676;50.916;13.352;2023-03-12T07:44:22;16.80;99.90
19088;DHT22;9676;50.916;13.352;2023-03-12T07:47:13;17.30;99.90
19088;DHT22;9676;50.916;13.352;2023-03-12T07:50:13;17.70;99.90
19088;DHT22;9676;50.916;13.352;2023-03-12T07:53:03;18.10;99.90
19088;DHT22;9676;50.916;13.352;2023-03-12T07:55:53;18.30;99.90
19088;DHT22;9676;50.916;13.352;2023-03-12T07:58:44;18.50;99.00
19088;DHT22;9676;50.916;13.352;2023-03-12T08:01:34;18.60;96.70
19088;DHT22;9676;50.916;13.352;2023-03-12T08:04:23;18.50;93.90
19088;DHT22;9676;50.916;13.352;2023-03-12T08:07:14;18.40;91.00
19088;DHT22;9676;50.916;13.352;2023-03-12T08:10:06;18.10;85.10
19088;DHT22;9676;50.916;13.352;2023-03-12T08:12:56;17.80;83.60
19088;DHT22;9676;50.916;13.352;2023-03-12T08:15:46;17.60;87.20
19088;DHT22;9676;50.916;13.352;2023-03-12T08:18:37;17.50;90.80
19088;DHT22;9676;50.916;13.352;2023-03-12T08:21:26;17.50;93.50
19088;DHT22;9676;50.916;13.352;2023-03-12T08:24:17;17.80;95.50
19088;DHT22;9676;50.916;13.352;2023-03-12T08:27:08;18.20;95.50
19088;DHT22;9676;50.916;13.352;2023-03-12T08:29:58;18.70;99.10
19088;DHT22;9676;50.916;13.352;2023-03-12T08:32:48;19.20;98.90
19088;DHT22;9676;50.916;13.352;2023-03-12T08:35:37;19.80;98.60
19088;DHT22;9676;50.916;13.352;2023-03-12T08:38:27;20.40;97.10
19088;DHT22;9676;50.916;13.352;2023-03-12T08:41:18;20.90;95.30
19088;DHT22;9676;50.916;13.352;2023-03-12T08:44:07;21.30;92.20
19088;DHT22;9676;50.916;13.352;2023-03-12T08:46:57;21.50;90.20
19088;DHT22;9676;50.916;13.352;2023-03-12T08:49:46;21.60;85.90
19088;DHT22;9676;50.916;13.352;2023-03-12T08:52:36;21.50;82.60
19088;DHT22;9676;50.916;13.352;2023-03-12T08:55:26;21.40;81.40
19088;DHT22;9676;50.916;13.352;2023-03-12T08:58:17;21.30;80.30
19088;DHT22;9676;50.916;13.352;2023-03-12T09:01:08;21.20;78.40
19088;DHT22;9676;50.916;13.352;2023-03-12T09:03:58;21.10;76.60
19088;DHT22;9676;50.916;13.352;2023-03-12T09:06:49;21.10;77.20
19088;DHT22;9676;50.916;13.352;2023-03-12T09:09:38;20.90;74.60
19088;DHT22;9676;50.916;13.352;2023-03-12T09:12:27;20.80;72.80
19088;DHT22;9676;50.916;13.352;2023-03-12T09:15:18;20.50;70.60
19088;DHT22;9676;50.916;13.352;2023-03-12T09:18:08;20.20;69.10
19088;DHT22;9676;50.916;13.352;2023-03-12T09:20:58;20.00;69.80
19088;DHT22;9676;50.916;13.352;2023-03-12T09:23:48;19.70;70.80
19088;DHT22;9676;50.916;13.352;2023-03-12T09:26:38;19.70;73.00
19088;DHT22;9676;50.916;13.352;2023-03-12T09:29:27;19.80;74.90
19088;DHT22;9676;50.916;13.352;2023-03-12T09:32:18;19.90;75.00
19088;DHT22;9676;50.916;13.352;2023-03-12T09:35:08;20.20;75.00
19088;DHT22;9676;50.916;13.352;2023-03-12T09:37:58;20.50;77.00
19088;DHT22;9676;50.916;13.352;2023-03-12T09:40:48;20.90;78.50
19088;DHT22;9676;50.916;13.352;2023-03-12T09:43:40;21.30;80.10
19088;DHT22;9676;50.916;13.352;2023-03-12T09:46:36;21.80;77.70
19088;DHT22;9676;50.916;13.352;2023-03-12T09:49:33;22.30;76.00
19088;DHT22;9676;50.916;13.352;2023-03-12T09:52:28;22.60;73.30
19088;DHT22;9676;50.916;13.352;2023-03-12T09:55:20;22.80;71.80
19088;DHT22;9676;50.916;13.352;2023-03-12T09:58:12;22.90;70.90
19088;DHT22;9676;50.916;13.352;2023-03-12T10:01:09;22.80;68.60
19088;DHT22;9676;50.916;13.352;2023-03-12T10:07:49;22.60;65.10
19088;DHT22;9676;50.916;13.352;2023-03-12T10:10:50;22.40;67.10
19088;DHT22;9676;50.916;13.352;2023-03-12T10:13:49;22.40;64.90
19088;DHT22;9676;50.916;13.352;2023-03-12T10:17:02;22.30;65.20
19088;DHT22;9676;50.916;13.352;2023-03-12T10:20:21;22.30;62.60
19088;DHT22;9676;50.916;13.352;2023-03-12T10:23:41;22.20;62.70
19088;DHT22;9676;50.916;13.352;2023-03-12T10:26:38;22.20;62.20
19088;DHT22;9676;50.916;13.352;2023-03-12T10:29:30;22.20;63.20
19088;DHT22;9676;50.916;13.352;2023-03-12T10:32:25;22.00;62.30
19088;DHT22;9676;50.916;13.352;2023-03-12T10:35:20;21.90;61.50
19088;DHT22;9676;50.916;13.352;2023-03-12T10:38:15;21.70;60.80
19088;DHT22;9676;50.916;13.352;2023-03-12T10:41:13;21.50;60.70
19088;DHT22;9676;50.916;13.352;2023-03-12T10:44:06;21.40;59.80
19088;DHT22;9676;50.916;13.352;2023-03-12T10:47:03;21.30;61.10
19088;DHT22;9676;50.916;13.352;2023-03-12T10:50:11;21.30;61.20
19088;DHT22;9676;50.916;13.352;2023-03-12T10:53:19;21.10;59.30
19088;DHT22;9676;50.916;13.352;2023-03-12T10:56:12;20.90;58.10
19088;DHT22;9676;50.916;13.352;2023-03-12T10:59:09;20.60;58.00
19088;DHT22;9676;50.916;13.352;2023-03-12T11:02:28;20.30;56.90
19088;DHT22;9676;50.916;13.352;2023-03-12T11:05:22;20.00;56.10
19088;DHT22;9676;50.916;13.352;2023-03-12T11:08:20;19.80;57.60
19088;DHT22;9676;50.916;13.352;2023-03-12T11:11:29;19.60;56.60
19088;DHT22;9676;50.916;13.352;2023-03-12T11:14:21;19.50;56.00
19088;DHT22;9676;50.916;13.352;2023-03-12T11:17:20;19.30;57.40
19088;DHT22;9676;50.916;13.352;2023-03-12T11:20:27;19.10;56.40
19088;DHT22;9676;50.916;13.352;2023-03-12T11:23:23;19.00;55.60
19088;DHT22;9676;50.916;13.352;2023-03-12T11:26:18;18.80;56.20
19088;DHT22;9676;50.916;13.352;2023-03-12T11:29:16;18.60;55.90
19088;DHT22;9676;50.916;13.352;2023-03-12T11:32:15;18.40;55.50
19088;DHT22;9676;50.916;13.352;2023-03-12T11:35:09;18.30;55.50
19088;DHT22;9676;50.916;13.352;2023-03-12T11:38:02;18.10;55.40
19088;DHT22;9676;50.916;13.352;2023-03-12T11:41:08;18.00;55.40
19088;DHT22;9676;50.916;13.352;2023-03-12T11:44:19;17.90;54.30
19088;DHT22;9676;50.916;13.352;2023-03-12T11:47:26;17.80;54.10
19088;DHT22;9676;50.916;13.352;2023-03-12T11:50:41;17.60;53.90
19088;DHT22;9676;50.916;13.352;2023-03-12T11:53:59;17.40;54.00
19088;DHT22;9676;50.916;13.352;2023-03-12T11:57:06;17.20;53.30
19088;DHT22;9676;50.916;13.352;2023-03-12T12:00:09;17.00;54.00
19088;DHT22;9676;50.916;13.352;2023-03-12T12:06:38;16.80;53.60
19088;DHT22;9676;50.916;13.352;2023-03-12T12:09:41;16.80;54.40
19088;DHT22;9676;50.916;13.352;2023-03-12T12:12:43;16.70;54.20
19088;DHT22;9676;50.916;13.352;2023-03-12T12:15:45;16.70;54.00
19088;DHT22;9676;50.916;13.352;2023-03-12T12:18:52;16.70;54.10
19088;DHT22;9676;50.916;13.352;2023-03-12T12:21:56;16.80;54.10
19088;DHT22;9676;50.916;13.352;2023-03-12T12:25:23;16.80;54.30
19088;DHT22;9676;50.916;13.352;2023-03-12T12:28:47;16.80;53.50
19088;DHT22;9676;50.916;13.352;2023-03-12T12:31:46;16.80;52.90
19088;DHT22;9676;50.916;13.352;2023-03-12T12:34:59;16.80;53.50
19088;DHT22;9676;50.916;13.352;2023-03-12T12:37:56;16.70;52.50
19088;DHT22;9676;50.916;13.352;2023-03-12T12:40:49;16.60;53.00
19088;DHT22;9676;50.916;13.352;2023-03-12T12:43:43;16.50;52.40
19088;DHT22;9676;50.916;13.352;2023-03-12T12:46:38;16.30;51.80
19088;DHT22;9676;50.916;13.352;2023-03-12T12:49:34;16.00;51.50
19088;DHT22;9676;50.916;13.352;2023-03-12T12:52:27;15.90;51.40
19088;DHT22;9676;50.916;13.352;2023-03-12T12:55:21;15.70;51.80
19088;DHT22;9676;50.916;13.352;2023-03-12T12:58:17;15.50;51.60
19088;DHT22;9676;50.916;13.352;2023-03-12T13:01:11;15.40;51.70
19088;DHT22;9676;50.916;13.352;2023-03-12T13:04:05;15.40;52.00
19088;DHT22;9676;50.916;13.352;2023-03-12T13:07:27;15.30;52.10
19088;DHT22;9676;50.916;13.352;2023-03-12T13:10:43;15.30;52.10
19088;DHT22;9676;50.916;13.352;2023-03-12T13:13:51;15.20;50.40
19088;DHT22;9676;50.916;13.352;2023-03-12T13:17:25;15.10;51.30
19088;DHT22;9676;50.916;13.352;2023-03-12T13:20:20;14.90;50.50
19088;DHT22;9676;50.916;13.352;2023-03-12T13:23:25;14.80;51.20
19088;DHT22;9676;50.916;13.352;2023-03-12T13:26:26;14.60;49.90
19088;DHT22;9676;50.916;13.352;2023-03-12T13:29:22;14.50;50.50
19088;DHT22;9676;50.916;13.352;2023-03-12T13:33:03;14.30;50.70
19088;DHT22;9676;50.916;13.352;2023-03-12T13:36:03;14.20;50.50
19088;DHT22;9676;50.916;13.352;2023-03-12T13:39:16;14.10;50.60
19088;DHT22;9676;50.916;13.352;2023-03-12T13:42:26;14.00;51.00
19088;DHT22;9676;50.916;13.352;2023-03-12T13:45:27;14.00;50.40
19088;DHT22;9676;50.916;13.352;2023-03-12T13:48:20;13.90;50.80
19088;DHT22;9676;50.916;13.352;2023-03-12T13:51:15;13.80;51.00
19088;DHT22;9676;50.916;13.352;2023-03-12T13:54:15;13.70;50.80
19088;DHT22;9676;50.916;13.352;2023-03-12T13:57:10;13.60;50.90
19088;DHT22;9676;50.916;13.352;2023-03-12T14:00:02;13.40;50.60
19088;DHT22;9676;50.916;13.352;2023-03-12T14:03:17;13.30;50.80
19088;DHT22;9676;50.916;13.352;2023-03-12T14:06:10;13.10;50.90
19088;DHT22;9676;50.916;13.352;2023-03-12T14:09:14;13.00;51.00
19088;DHT22;9676;50.916;13.352;2023-03-12T14:12:16;12.90;51.00
19088;DHT22;9676;50.916;13.352;2023-03-12T14:15:20;12.80;51.00
19088;DHT22;9676;50.916;13.352;2023-03-12T14:18:17;12.60;51.10
19088;DHT22;9676;50.916;13.352;2023-03-12T14:21:13;12.50;51.10
19088;DHT22;9676;50.916;13.352;2023-03-12T14:27:12;12.20;51.30
19088;DHT22;9676;50.916;13.352;2023-03-12T14:30:10;12.00;51.80
19088;DHT22;9676;50.916;13.352;2023-03-12T14:33:02;11.80;52.10
19088;DHT22;9676;50.916;13.352;2023-03-12T14:35:56;11.70;52.20
19088;DHT22;9676;50.916;13.352;2023-03-12T14:38:50;11.60;52.50
19088;DHT22;9676;50.916;13.352;2023-03-12T14:41:50;11.40;52.50
19088;DHT22;9676;50.916;13.352;2023-03-12T14:45:08;11.30;52.90
19088;DHT22;9676;50.916;13.352;2023-03-12T14:47:59;11.20;53.30
19088;DHT22;9676;50.916;13.352;2023-03-12T14:50:49;11.20;53.30
19088;DHT22;9676;50.916;13.352;2023-03-12T14:53:38;11.10;53.40
19088;DHT22;9676;50.916;13.352;2023-03-12T14:56:29;11.00;53.60
19088;DHT22;9676;50.916;13.352;2023-03-12T14:59:28;11.00;53.80
19088;DHT22;9676;50.916;13.352;2023-03-12T15:02:19;10.90;53.90
19088;DHT22;9676;50.916;13.352;2023-03-12T15:05:15;10.90;53.90
19088;DHT22;9676;50.916;13.352;2023-03-12T15:08:06;10.80;54.10
19088;DHT22;9676;50.916;13.352;2023-03-12T15:10:57;10.80;54.00
19088;DHT22;9676;50.916;13.352;2023-03-12T15:13:47;10.70;53.90
19088;DHT22;9676;50.916;13.352;2023-03-12T15:16:38;10.60;54.00
19088;DHT22;9676;50.916;13.352;2023-03-12T15:19:31;10.60;54.10
19088;DHT22;9676;50.916;13.352;2023-03-12T15:22:24;10.50;54.30
19088;DHT22;9676;50.916;13.352;2023-03-12T15:25:23;10.40;54.40
19088;DHT22;9676;50.916;13.352;2023-03-12T15:28:25;10.40;54.70
19088;DHT22;9676;50.916;13.352;2023-03-12T15:31:16;10.40;54.80
19088;DHT22;9676;50.916;13.352;2023-03-12T15:34:05;10.30;54.50
19088;DHT22;9676;50.916;13.352;2023-03-12T15:36:53;10.30;54.70
19088;DHT22;9676;50.916;13.352;2023-03-12T15:39:47;10.20;54.80
19088;DHT22;9676;50.916;13.352;2023-03-12T15:42:39;10.20;54.90
19088;DHT22;9676;50.916;13.352;2023-03-12T15:45:34;10.20;54.90
19088;DHT22;9676;50.916;13.352;2023-03-12T15:48:26;10.10;55.00
19088;DHT22;9676;50.916;13.352;2023-03-12T15:51:32;10.10;55.10
19088;DHT22;9676;50.916;13.352;2023-03-12T15:54:24;10.10;55.30
19088;DHT22;9676;50.916;13.352;2023-03-12T15:57:22;10.00;55.10
19088;DHT22;9676;50.916;13.352;2023-03-12T16:00:19;10.00;55.30
19088;DHT22;9676;50.916;13.352;2023-03-12T16:03:15;10.00;55.20
19088;DHT22;9676;50.916;13.352;2023-03-12T16:06:08;9.90;56.20
19088;DHT22;9676;50.916;13.352;2023-03-12T16:09:02;9.90;56.10
19088;DHT22;9676;50.916;13.352;2023-03-12T16:11:53;9.90;56.30
19088;DHT22;9676;50.916;13.352;2023-03-12T16:14:44;9.80;56.20
19088;DHT22;9676;50.916;13.352;2023-03-12T16:17:32;9.80;56.30
19088;DHT22;9676;50.916;13.352;2023-03-12T16:20:20;9.80;56.50
19088;DHT22;9676;50.916;13.352;2023-03-12T16:23:09;9.80;56.60
19088;DHT22;9676;50.916;13.352;2023-03-12T16:26:02;9.70;56.50
19088;DHT22;9676;50.916;13.352;2023-03-12T16:28:53;9.70;56.80
19088;DHT22;9676;50.916;13.352;2023-03-12T16:31:41;9.70;56.80
19088;DHT22;9676;50.916;13.352;2023-03-12T16:34:28;9.70;56.80
19088;DHT22;9676;50.916;13.352;2023-03-12T16:37:18;9.60;56.80
19088;DHT22;9676;50.916;13.352;2023-03-12T16:40:07;9.50;57.00
19088;DHT22;9676;50.916;13.352;2023-03-12T16:43:04;9.50;57.20
19088;DHT22;9676;50.916;13.352;2023-03-12T16:45:55;9.40;57.40
19088;DHT22;9676;50.916;13.352;2023-03-12T16:48:49;9.40;57.50
19088;DHT22;9676;50.916;13.352;2023-03-12T16:51:38;9.40;57.90
19088;DHT22;9676;50.916;13.352;2023-03-12T16:54:26;9.30;57.70
19088;DHT22;9676;50.916;13.352;2023-03-12T16:57:19;9.30;57.90
19088;DHT22;9676;50.916;13.352;2023-03-12T17:00:14;9.30;58.20
19088;DHT22;9676;50.916;13.352;2023-03-12T17:03:05;9.30;58.20
19088;DHT22;9676;50.916;13.352;2023-03-12T17:05:52;9.30;58.20
19088;DHT22;9676;50.916;13.352;2023-03-12T17:08:42;9.30;58.40
19088;DHT22;9676;50.916;13.352;2023-03-12T17:11:31;9.30;58.40
19088;DHT22;9676;50.916;13.352;2023-03-12T17:14:20;9.30;58.70
19088;DHT22;9676;50.916;13.352;2023-03-12T17:17:12;9.30;58.80
19088;DHT22;9676;50.916;13.352;2023-03-12T17:19:59;9.30;59.10
19088;DHT22;9676;50.916;13.352;2023-03-12T17:22:47;9.30;59.30
19088;DHT22;9676;50.916;13.352;2023-03-12T17:25:38;9.30;59.40
19088;DHT22;9676;50.916;13.352;2023-03-12T17:28:28;9.30;59.50
19088;DHT22;9676;50.916;13.352;2023-03-12T17:31:16;9.30;59.80
19088;DHT22;9676;50.916;13.352;2023-03-12T17:34:05;9.30;60.00
19088;DHT22;9676;50.916;13.352;2023-03-12T17:36:53;9.30;60.10
19088;DHT22;9676;50.916;13.352;2023-03-12T17:39:41;9.30;60.10
19088;DHT22;9676;50.916;13.352;2023-03-12T17:42:30;9.30;60.30
19088;DHT22;9676;50.916;13.352;2023-03-12T17:45:20;9.30;60.50
19088;DHT22;9676;50.916;13.352;2023-03-12T17:48:08;9.30;60.80
19088;DHT22;9676;50.916;13.352;2023-03-12T17:50:57;9.40;60.80
19088;DHT22;9676;50.916;13.352;2023-03-12T17:53:47;9.40;61.70
19088;DHT22;9676;50.916;13.352;2023-03-12T17:56:36;9.40;61.10
19088;DHT22;9676;50.916;13.352;2023-03-12T17:59:24;9.40;61.30
19088;DHT22;9676;50.916;13.352;2023-03-12T18:02:13;9.40;61.50
19088;DHT22;9676;50.916;13.352;2023-03-12T18:05:01;9.40;61.80
19088;DHT22;9676;50.916;13.352;2023-03-12T18:07:50;9.40;62.20
19088;DHT22;9676;50.916;13.352;2023-03-12T18:10:39;9.40;62.50
19088;DHT22;9676;50.916;13.352;2023-03-12T18:13:27;9.40;62.40
19088;DHT22;9676;50.916;13.352;2023-03-12T18:16:17;9.40;62.60
19088;DHT22;9676;50.916;13.352;2023-03-12T18:19:06;9.50;63.00
19088;DHT22;9676;50.916;13.352;2023-03-12T18:21:54;9.50;63.00
19088;DHT22;9676;50.916;13.352;2023-03-12T18:24:43;9.50;63.20
19088;DHT22;9676;50.916;13.352;2023-03-12T18:27:31;9.50;63.40
19088;DHT22;9676;50.916;13.352;2023-03-12T18:30:20;9.50;63.30
19088;DHT22;9676;50.916;13.352;2023-03-12T18:33:09;9.60;63.60
19088;DHT22;9676;50.916;13.352;2023-03-12T18:35:59;9.60;64.10